sensor_id;sensor_type;location;lat;lon;timestamp;P1;durP1;ratioP1;P2;durP2;ratioP2
54139;SDS011;40046;53.254;5.900;2023-04-08T00:01:15;7.68;;;4.47;;
54139;SDS011;40046;53.254;5.900;2023-04-08T00:03:41;11.65;;;4.78;;
54139;SDS011;40046;53.254;5.900;2023-04-08T00:06:07;7.07;;;4.70;;
54139;SDS011;40046;53.254;5.900;2023-04-08T00:08:34;6.93;;;5.00;;
54139;SDS011;40046;53.254;5.900;2023-04-08T00:11:00;8.13;;;6.00;;
54139;SDS011;40046;53.254;5.900;2023-04-08T00:13:26;11.43;;;5.53;;
54139;SDS011;40046;53.254;5.900;2023-04-08T00:15:52;7.53;;;4.85;;
54139;SDS011;40046;53.254;5.900;2023-04-08T00:18:18;10.40;;;5.43;;
54139;SDS011;40046;53.254;5.900;2023-04-08T00:20:45;7.55;;;5.53;;
54139;SDS011;40046;53.254;5.900;2023-04-08T00:23:11;8.70;;;5.93;;
54139;SDS011;40046;53.254;5.900;2023-04-08T00:25:37;8.40;;;5.95;;
54139;SDS011;40046;53.254;5.900;2023-04-08T00:28:03;8.68;;;5.68;;
54139;SDS011;40046;53.254;5.900;2023-04-08T00:30:29;10.48;;;5.88;;
54139;SDS011;40046;53.254;5.900;2023-04-08T00:32:55;10.73;;;6.10;;
54139;SDS011;40046;53.254;5.900;2023-04-08T00:35:22;10.35;;;6.38;;
54139;SDS011;40046;53.254;5.900;2023-04-08T00:37:48;11.30;;;6.20;;
54139;SDS011;40046;53.254;5.900;2023-04-08T00:40:15;11.70;;;6.35;;
54139;SDS011;40046;53.254;5.900;2023-04-08T00:42:41;10.63;;;6.93;;
54139;SDS011;40046;53.254;5.900;2023-04-08T00:45:07;9.63;;;6.65;;
54139;SDS011;40046;53.254;5.900;2023-04-08T00:47:34;11.30;;;6.63;;
54139;SDS011;40046;53.254;5.900;2023-04-08T00:50:01;12.13;;;7.47;;
54139;SDS011;40046;53.254;5.900;2023-04-08T00:52:28;9.98;;;7.70;;
54139;SDS011;40046;53.254;5.900;2023-04-08T00:54:54;11.90;;;7.45;;
54139;SDS011;40046;53.254;5.900;2023-04-08T00:57:20;11.55;;;7.55;;
54139;SDS011;40046;53.254;5.900;2023-04-08T00:59:47;11.10;;;7.65;;
54139;SDS011;40046;53.254;5.900;2023-04-08T01:02:14;11.60;;;7.13;;
54139;SDS011;40046;53.254;5.900;2023-04-08T01:09:55;14.95;;;8.93;;
54139;SDS011;40046;53.254;5.900;2023-04-08T01:12:31;16.48;;;8.70;;
54139;SDS011;40046;53.254;5.900;2023-04-08T01:14:59;15.93;;;8.73;;
54139;SDS011;40046;53.254;5.900;2023-04-08T01:17:25;12.07;;;7.82;;
54139;SDS011;40046;53.254;5.900;2023-04-08T01:19:52;11.20;;;8.50;;
54139;SDS011;40046;53.254;5.900;2023-04-08T01:22:28;11.90;;;8.10;;
54139;SDS011;40046;53.254;5.900;2023-04-08T01:25:31;14.02;;;8.70;;
54139;SDS011;40046;53.254;5.900;2023-04-08T01:27:49;12.38;;;8.57;;
54139;SDS011;40046;53.254;5.900;2023-04-08T01:30:20;12.02;;;9.48;;
54139;SDS011;40046;53.254;5.900;2023-04-08T01:32:48;15.30;;;10.93;;
54139;SDS011;40046;53.254;5.900;2023-04-08T01:35:16;12.05;;;9.80;;
54139;SDS011;40046;53.254;5.900;2023-04-08T01:37:43;14.95;;;10.55;;
54139;SDS011;40046;53.254;5.900;2023-04-08T01:40:10;11.18;;;9.02;;
54139;SDS011;40046;53.254;5.900;2023-04-08T01:42:36;12.93;;;9.60;;
54139;SDS011;40046;53.254;5.900;2023-04-08T01:45:03;13.25;;;9.63;;
54139;SDS011;40046;53.254;5.900;2023-04-08T01:47:29;15.68;;;9.93;;
54139;SDS011;40046;53.254;5.900;2023-04-08T01:49:56;14.10;;;10.63;;
54139;SDS011;40046;53.254;5.900;2023-04-08T01:52:23;13.10;;;9.95;;
54139;SDS011;40046;53.254;5.900;2023-04-08T01:54:50;16.15;;;11.40;;
54139;SDS011;40046;53.254;5.900;2023-04-08T01:57:18;17.00;;;10.57;;
54139;SDS011;40046;53.254;5.900;2023-04-08T01:59:46;13.52;;;10.05;;
54139;SDS011;40046;53.254;5.900;2023-04-08T02:02:13;14.10;;;10.73;;
54139;SDS011;40046;53.254;5.900;2023-04-08T02:04:40;16.85;;;12.50;;
54139;SDS011;40046;53.254;5.900;2023-04-08T02:07:06;15.48;;;11.10;;
54139;SDS011;40046;53.254;5.900;2023-04-08T02:09:33;14.13;;;11.18;;
54139;SDS011;40046;53.254;5.900;2023-04-08T02:11:59;16.48;;;12.65;;
54139;SDS011;40046;53.254;5.900;2023-04-08T02:14:26;15.88;;;11.38;;
54139;SDS011;40046;53.254;5.900;2023-04-08T02:17:01;16.48;;;12.15;;
54139;SDS011;40046;53.254;5.900;2023-04-08T02:19:35;17.38;;;12.88;;
54139;SDS011;40046;53.254;5.900;2023-04-08T02:22:04;17.48;;;11.85;;
54139;SDS011;40046;53.254;5.900;2023-04-08T02:24:34;16.73;;;12.15;;
54139;SDS011;40046;53.254;5.900;2023-04-08T02:27:01;18.60;;;12.05;;
54139;SDS011;40046;53.254;5.900;2023-04-08T02:29:28;15.90;;;11.70;;
54139;SDS011;40046;53.254;5.900;2023-04-08T02:31:56;19.25;;;13.07;;
54139;SDS011;40046;53.254;5.900;2023-04-08T02:34:23;18.35;;;13.73;;
54139;SDS011;40046;53.254;5.900;2023-04-08T02:36:50;20.48;;;12.88;;
54139;SDS011;40046;53.254;5.900;2023-04-08T02:39:16;16.48;;;13.00;;
54139;SDS011;40046;53.254;5.900;2023-04-08T02:41:46;16.42;;;12.68;;
54139;SDS011;40046;53.254;5.900;2023-04-08T02:44:12;20.48;;;13.90;;
54139;SDS011;40046;53.254;5.900;2023-04-08T02:46:39;18.73;;;14.25;;
54139;SDS011;40046;53.254;5.900;2023-04-08T02:49:05;19.27;;;14.52;;
54139;SDS011;40046;53.254;5.900;2023-04-08T02:51:31;19.33;;;14.07;;
54139;SDS011;40046;53.254;5.900;2023-04-08T02:53:58;19.30;;;14.35;;
54139;SDS011;40046;53.254;5.900;2023-04-08T02:56:24;20.17;;;15.32;;
54139;SDS011;40046;53.254;5.900;2023-04-08T02:58:50;19.13;;;14.30;;
54139;SDS011;40046;53.254;5.900;2023-04-08T03:01:16;18.35;;;15.02;;
54139;SDS011;40046;53.254;5.900;2023-04-08T03:03:42;20.13;;;15.02;;
54139;SDS011;40046;53.254;5.900;2023-04-08T03:06:08;21.05;;;15.05;;
54139;SDS011;40046;53.254;5.900;2023-04-08T03:08:35;21.65;;;15.75;;
54139;SDS011;40046;53.254;5.900;2023-04-08T03:11:01;20.67;;;15.27;;
54139;SDS011;40046;53.254;5.900;2023-04-08T03:13:27;26.00;;;15.38;;
54139;SDS011;40046;53.254;5.900;2023-04-08T03:15:54;21.80;;;15.27;;
54139;SDS011;40046;53.254;5.900;2023-04-08T03:18:20;25.08;;;15.80;;
54139;SDS011;40046;53.254;5.900;2023-04-08T03:20:46;21.63;;;16.02;;
54139;SDS011;40046;53.254;5.900;2023-04-08T03:23:12;22.05;;;16.17;;
54139;SDS011;40046;53.254;5.900;2023-04-08T03:25:38;22.05;;;15.25;;
54139;SDS011;40046;53.254;5.900;2023-04-08T03:28:04;23.30;;;17.30;;
54139;SDS011;40046;53.254;5.900;2023-04-08T03:30:30;23.48;;;16.83;;
54139;SDS011;40046;53.254;5.900;2023-04-08T03:32:57;23.38;;;16.63;;
54139;SDS011;40046;53.254;5.900;2023-04-08T03:35:23;23.83;;;17.02;;
54139;SDS011;40046;53.254;5.900;2023-04-08T03:37:49;20.92;;;16.13;;
54139;SDS011;40046;53.254;5.900;2023-04-08T03:40:15;24.30;;;17.55;;
54139;SDS011;40046;53.254;5.900;2023-04-08T03:42:41;20.20;;;16.38;;
54139;SDS011;40046;53.254;5.900;2023-04-08T03:45:07;22.17;;;17.23;;
54139;SDS011;40046;53.254;5.900;2023-04-08T03:47:34;23.10;;;16.55;;
54139;SDS011;40046;53.254;5.900;2023-04-08T03:50:00;24.00;;;18.42;;
54139;SDS011;40046;53.254;5.900;2023-04-08T03:52:26;24.30;;;17.88;;
54139;SDS011;40046;53.254;5.900;2023-04-08T03:54:52;24.30;;;18.00;;
54139;SDS011;40046;53.254;5.900;2023-04-08T03:57:18;24.35;;;17.13;;
54139;SDS011;40046;53.254;5.900;2023-04-08T03:59:45;24.27;;;17.75;;
54139;SDS011;40046;53.254;5.900;2023-04-08T04:02:11;30.27;;;18.15;;
54139;SDS011;40046;53.254;5.900;2023-04-08T04:04:37;23.70;;;18.27;;
54139;SDS011;40046;53.254;5.900;2023-04-08T04:07:03;23.58;;;17.35;;
54139;SDS011;40046;53.254;5.900;2023-04-08T04:09:30;24.65;;;16.08;;
54139;SDS011;40046;53.254;5.900;2023-04-08T04:11:56;25.25;;;17.83;;
54139;SDS011;40046;53.254;5.900;2023-04-08T04:14:23;22.63;;;17.50;;
54139;SDS011;40046;53.254;5.900;2023-04-08T04:16:49;25.52;;;17.40;;
54139;SDS011;40046;53.254;5.900;2023-04-08T04:19:15;24.38;;;17.42;;
54139;SDS011;40046;53.254;5.900;2023-04-08T04:21:42;24.27;;;18.13;;
54139;SDS011;40046;53.254;5.900;2023-04-08T04:24:08;24.60;;;18.40;;
54139;SDS011;40046;53.254;5.900;2023-04-08T04:26:34;23.95;;;17.52;;
54139;SDS011;40046;53.254;5.900;2023-04-08T04:29:01;26.33;;;17.70;;
54139;SDS011;40046;53.254;5.900;2023-04-08T04:31:27;25.33;;;17.98;;
54139;SDS011;40046;53.254;5.900;2023-04-08T04:33:53;27.50;;;18.88;;
54139;SDS011;40046;53.254;5.900;2023-04-08T04:36:19;24.38;;;18.52;;
54139;SDS011;40046;53.254;5.900;2023-04-08T04:38:46;26.25;;;18.90;;
54139;SDS011;40046;53.254;5.900;2023-04-08T04:41:12;24.38;;;17.77;;
54139;SDS011;40046;53.254;5.900;2023-04-08T04:43:38;26.00;;;18.60;;
54139;SDS011;40046;53.254;5.900;2023-04-08T04:46:04;26.10;;;18.73;;
54139;SDS011;40046;53.254;5.900;2023-04-08T04:48:33;25.50;;;17.50;;
54139;SDS011;40046;53.254;5.900;2023-04-08T04:50:59;23.13;;;16.75;;
54139;SDS011;40046;53.254;5.900;2023-04-08T04:53:27;25.90;;;18.35;;
54139;SDS011;40046;53.254;5.900;2023-04-08T04:55:54;23.15;;;18.02;;
54139;SDS011;40046;53.254;5.900;2023-04-08T04:58:20;23.83;;;18.50;;
54139;SDS011;40046;53.254;5.900;2023-04-08T05:00:46;24.98;;;16.90;;
54139;SDS011;40046;53.254;5.900;2023-04-08T05:03:12;25.10;;;17.27;;
54139;SDS011;40046;53.254;5.900;2023-04-08T05:05:38;23.33;;;17.13;;
54139;SDS011;40046;53.254;5.900;2023-04-08T05:08:04;29.63;;;19.42;;
54139;SDS011;40046;53.254;5.900;2023-04-08T05:10:31;22.13;;;16.52;;
54139;SDS011;40046;53.254;5.900;2023-04-08T05:12:57;24.30;;;17.95;;
54139;SDS011;40046;53.254;5.900;2023-04-08T05:15:24;24.25;;;18.45;;
54139;SDS011;40046;53.254;5.900;2023-04-08T05:17:50;25.85;;;17.42;;
54139;SDS011;40046;53.254;5.900;2023-04-08T05:20:16;23.73;;;17.90;;
54139;SDS011;40046;53.254;5.900;2023-04-08T05:22:42;26.35;;;18.77;;
54139;SDS011;40046;53.254;5.900;2023-04-08T05:25:09;23.55;;;17.17;;
54139;SDS011;40046;53.254;5.900;2023-04-08T05:27:36;26.08;;;19.63;;
54139;SDS011;40046;53.254;5.900;2023-04-08T05:30:02;25.05;;;19.48;;
54139;SDS011;40046;53.254;5.900;2023-04-08T05:32:29;25.50;;;17.85;;
54139;SDS011;40046;53.254;5.900;2023-04-08T05:34:55;30.77;;;21.85;;
54139;SDS011;40046;53.254;5.900;2023-04-08T05:37:21;32.85;;;22.85;;
54139;SDS011;40046;53.254;5.900;2023-04-08T05:39:47;29.42;;;21.38;;
54139;SDS011;40046;53.254;5.900;2023-04-08T05:42:13;30.75;;;22.77;;
54139;SDS011;40046;53.254;5.900;2023-04-08T05:44:39;31.85;;;22.67;;
54139;SDS011;40046;53.254;5.900;2023-04-08T05:47:08;29.52;;;22.25;;
54139;SDS011;40046;53.254;5.900;2023-04-08T05:49:34;30.95;;;22.13;;
54139;SDS011;40046;53.254;5.900;2023-04-08T05:52:01;33.70;;;23.60;;
54139;SDS011;40046;53.254;5.900;2023-04-08T05:54:28;31.48;;;22.30;;
54139;SDS011;40046;53.254;5.900;2023-04-08T05:56:54;35.55;;;23.70;;
54139;SDS011;40046;53.254;5.900;2023-04-08T05:59:20;34.00;;;23.38;;
54139;SDS011;40046;53.254;5.900;2023-04-08T06:01:46;30.65;;;22.23;;
54139;SDS011;40046;53.254;5.900;2023-04-08T06:04:12;29.65;;;23.15;;
54139;SDS011;40046;53.254;5.900;2023-04-08T06:06:39;34.03;;;23.58;;
54139;SDS011;40046;53.254;5.900;2023-04-08T06:09:05;33.03;;;22.45;;
54139;SDS011;40046;53.254;5.900;2023-04-08T06:11:31;35.08;;;24.42;;
54139;SDS011;40046;53.254;5.900;2023-04-08T06:13:57;33.10;;;23.60;;
54139;SDS011;40046;53.254;5.900;2023-04-08T06:16:23;33.50;;;23.55;;
54139;SDS011;40046;53.254;5.900;2023-04-08T06:18:50;35.85;;;25.90;;
54139;SDS011;40046;53.254;5.900;2023-04-08T06:21:16;38.85;;;24.52;;
54139;SDS011;40046;53.254;5.900;2023-04-08T06:23:42;30.45;;;23.17;;
54139;SDS011;40046;53.254;5.900;2023-04-08T06:26:09;37.70;;;24.33;;
54139;SDS011;40046;53.254;5.900;2023-04-08T06:28:35;32.63;;;23.70;;
54139;SDS011;40046;53.254;5.900;2023-04-08T06:31:01;34.00;;;25.65;;
54139;SDS011;40046;53.254;5.900;2023-04-08T06:33:27;34.85;;;26.00;;
54139;SDS011;40046;53.254;5.900;2023-04-08T06:36:03;37.40;;;25.13;;
54139;SDS011;40046;53.254;5.900;2023-04-08T06:38:29;35.80;;;25.80;;
54139;SDS011;40046;53.254;5.900;2023-04-08T06:41:05;35.58;;;24.30;;
54139;SDS011;40046;53.254;5.900;2023-04-08T06:43:31;33.65;;;23.38;;
54139;SDS011;40046;53.254;5.900;2023-04-08T06:45:58;40.58;;;25.95;;
54139;SDS011;40046;53.254;5.900;2023-04-08T06:48:24;40.97;;;26.90;;
54139;SDS011;40046;53.254;5.900;2023-04-08T06:50:54;37.28;;;24.40;;
54139;SDS011;40046;53.254;5.900;2023-04-08T06:53:21;33.42;;;25.02;;
54139;SDS011;40046;53.254;5.900;2023-04-08T06:55:48;38.05;;;25.38;;
54139;SDS011;40046;53.254;5.900;2023-04-08T06:58:14;35.63;;;25.48;;
54139;SDS011;40046;53.254;5.900;2023-04-08T07:00:40;33.08;;;24.83;;
54139;SDS011;40046;53.254;5.900;2023-04-08T07:03:07;43.85;;;27.88;;
54139;SDS011;40046;53.254;5.900;2023-04-08T07:05:36;33.10;;;24.63;;
54139;SDS011;40046;53.254;5.900;2023-04-08T07:08:03;34.42;;;23.88;;
54139;SDS011;40046;53.254;5.900;2023-04-08T07:10:29;34.50;;;24.63;;
54139;SDS011;40046;53.254;5.900;2023-04-08T07:12:55;34.63;;;24.30;;
54139;SDS011;40046;53.254;5.900;2023-04-08T07:15:21;32.50;;;24.00;;
54139;SDS011;40046;53.254;5.900;2023-04-08T07:17:47;36.20;;;23.35;;
54139;SDS011;40046;53.254;5.900;2023-04-08T07:20:14;30.20;;;23.13;;
54139;SDS011;40046;53.254;5.900;2023-04-08T07:22:40;31.27;;;23.30;;
54139;SDS011;40046;53.254;5.900;2023-04-08T07:25:06;32.70;;;22.40;;
54139;SDS011;40046;53.254;5.900;2023-04-08T07:27:33;31.35;;;21.85;;
54139;SDS011;40046;53.254;5.900;2023-04-08T07:30:00;32.90;;;22.35;;
54139;SDS011;40046;53.254;5.900;2023-04-08T07:32:26;27.27;;;19.70;;
54139;SDS011;40046;53.254;5.900;2023-04-08T07:34:53;27.52;;;19.55;;
54139;SDS011;40046;53.254;5.900;2023-04-08T07:37:19;26.75;;;19.90;;
54139;SDS011;40046;53.254;5.900;2023-04-08T07:39:45;25.67;;;19.65;;
54139;SDS011;40046;53.254;5.900;2023-04-08T07:42:11;20.13;;;16.55;;
54139;SDS011;40046;53.254;5.900;2023-04-08T07:44:37;23.88;;;17.92;;
54139;SDS011;40046;53.254;5.900;2023-04-08T07:47:03;22.23;;;17.10;;
54139;SDS011;40046;53.254;5.900;2023-04-08T07:49:30;21.33;;;17.00;;
54139;SDS011;40046;53.254;5.900;2023-04-08T07:51:56;20.45;;;15.48;;
54139;SDS011;40046;53.254;5.900;2023-04-08T07:54:22;20.73;;;14.68;;
54139;SDS011;40046;53.254;5.900;2023-04-08T07:56:48;17.05;;;13.35;;
54139;SDS011;40046;53.254;5.900;2023-04-08T07:59:14;21.17;;;15.23;;
54139;SDS011;40046;53.254;5.900;2023-04-08T08:01:40;18.25;;;13.73;;
54139;SDS011;40046;53.254;5.900;2023-04-08T08:04:07;17.92;;;14.20;;
54139;SDS011;40046;53.254;5.900;2023-04-08T08:06:33;18.67;;;13.13;;
54139;SDS011;40046;53.254;5.900;2023-04-08T08:08:59;18.50;;;13.73;;
54139;SDS011;40046;53.254;5.900;2023-04-08T08:11:25;13.57;;;11.32;;
54139;SDS011;40046;53.254;5.900;2023-04-08T08:13:52;13.68;;;10.75;;
54139;SDS011;40046;53.254;5.900;2023-04-08T08:16:18;13.15;;;10.70;;
54139;SDS011;40046;53.254;5.900;2023-04-08T08:18:45;14.50;;;10.77;;
54139;SDS011;40046;53.254;5.900;2023-04-08T08:21:11;14.35;;;11.00;;
54139;SDS011;40046;53.254;5.900;2023-04-08T08:23:37;15.93;;;11.38;;
54139;SDS011;40046;53.254;5.900;2023-04-08T08:26:07;15.50;;;11.15;;
54139;SDS011;40046;53.254;5.900;2023-04-08T08:28:34;14.50;;;9.98;;
54139;SDS011;40046;53.254;5.900;2023-04-08T08:31:00;13.60;;;9.95;;
54139;SDS011;40046;53.254;5.900;2023-04-08T08:33:27;12.77;;;9.30;;
54139;SDS011;40046;53.254;5.900;2023-04-08T08:35:53;11.82;;;9.20;;
54139;SDS011;40046;53.254;5.900;2023-04-08T08:38:22;12.43;;;9.95;;
54139;SDS011;40046;53.254;5.900;2023-04-08T08:40:54;12.38;;;8.65;;
54139;SDS011;40046;53.254;5.900;2023-04-08T08:43:21;11.10;;;8.60;;
54139;SDS011;40046;53.254;5.900;2023-04-08T08:45:47;12.95;;;9.18;;
54139;SDS011;40046;53.254;5.900;2023-04-08T08:48:14;13.00;;;9.43;;
54139;SDS011;40046;53.254;5.900;2023-04-08T08:50:40;12.43;;;9.20;;
54139;SDS011;40046;53.254;5.900;2023-04-08T08:53:06;12.30;;;9.95;;
54139;SDS011;40046;53.254;5.900;2023-04-08T08:55:32;11.57;;;9.30;;
54139;SDS011;40046;53.254;5.900;2023-04-08T08:57:59;12.07;;;9.45;;
54139;SDS011;40046;53.254;5.900;2023-04-08T09:00:38;12.60;;;9.07;;
54139;SDS011;40046;53.254;5.900;2023-04-08T09:03:14;11.85;;;9.50;;
54139;SDS011;40046;53.254;5.900;2023-04-08T09:05:48;11.60;;;9.00;;
54139;SDS011;40046;53.254;5.900;2023-04-08T09:08:33;12.85;;;8.73;;
54139;SDS011;40046;53.254;5.900;2023-04-08T09:11:13;10.98;;;8.32;;
54139;SDS011;40046;53.254;5.900;2023-04-08T09:13:40;11.35;;;8.70;;
54139;SDS011;40046;53.254;5.900;2023-04-08T09:16:07;11.20;;;8.63;;
54139;SDS011;40046;53.254;5.900;2023-04-08T09:18:34;11.68;;;8.73;;
54139;SDS011;40046;53.254;5.900;2023-04-08T09:21:02;10.48;;;8.90;;
54139;SDS011;40046;53.254;5.900;2023-04-08T09:23:44;10.88;;;8.73;;
54139;SDS011;40046;53.254;5.900;2023-04-08T09:26:14;14.32;;;9.95;;
54139;SDS011;40046;53.254;5.900;2023-04-08T09:28:41;12.80;;;9.93;;
54139;SDS011;40046;53.254;5.900;2023-04-08T09:31:16;12.20;;;9.70;;
54139;SDS011;40046;53.254;5.900;2023-04-08T09:33:44;14.20;;;10.32;;
54139;SDS011;40046;53.254;5.900;2023-04-08T09:36:10;12.63;;;10.32;;
54139;SDS011;40046;53.254;5.900;2023-04-08T09:38:37;16.20;;;10.73;;
54139;SDS011;40046;53.254;5.900;2023-04-08T09:41:03;12.40;;;9.93;;
54139;SDS011;40046;53.254;5.900;2023-04-08T09:43:32;14.77;;;10.45;;
54139;SDS011;40046;53.254;5.900;2023-04-08T09:46:00;13.15;;;10.52;;
54139;SDS011;40046;53.254;5.900;2023-04-08T09:48:31;13.48;;;9.70;;
54139;SDS011;40046;53.254;5.900;2023-04-08T09:50:59;12.48;;;11.13;;
54139;SDS011;40046;53.254;5.900;2023-04-08T09:53:28;14.38;;;9.52;;
54139;SDS011;40046;53.254;5.900;2023-04-08T09:55:55;12.88;;;9.88;;
54139;SDS011;40046;53.254;5.900;2023-04-08T09:58:27;13.35;;;10.23;;
54139;SDS011;40046;53.254;5.900;2023-04-08T10:00:53;14.82;;;10.48;;
54139;SDS011;40046;53.254;5.900;2023-04-08T10:03:30;13.23;;;10.80;;
54139;SDS011;40046;53.254;5.900;2023-04-08T10:06:00;14.60;;;11.98;;
54139;SDS011;40046;53.254;5.900;2023-04-08T10:08:27;14.55;;;11.45;;
54139;SDS011;40046;53.254;5.900;2023-04-08T10:10:53;14.43;;;11.52;;
54139;SDS011;40046;53.254;5.900;2023-04-08T10:13:20;15.02;;;11.98;;
54139;SDS011;40046;53.254;5.900;2023-04-08T10:15:47;15.43;;;12.07;;
54139;SDS011;40046;53.254;5.900;2023-04-08T10:20:43;16.38;;;11.32;;
54139;SDS011;40046;53.254;5.900;2023-04-08T10:23:13;14.65;;;11.23;;
54139;SDS011;40046;53.254;5.900;2023-04-08T10:25:42;14.55;;;11.55;;
54139;SDS011;40046;53.254;5.900;2023-04-08T10:30:47;13.45;;;11.07;;
54139;SDS011;40046;53.254;5.900;2023-04-08T10:35:46;15.35;;;10.68;;
54139;SDS011;40046;53.254;5.900;2023-04-08T10:38:15;13.75;;;10.10;;
54139;SDS011;40046;53.254;5.900;2023-04-08T10:40:42;13.65;;;10.65;;
54139;SDS011;40046;53.254;5.900;2023-04-08T10:43:09;11.50;;;9.32;;
54139;SDS011;40046;53.254;5.900;2023-04-08T10:45:36;13.45;;;10.90;;
54139;SDS011;40046;53.254;5.900;2023-04-08T10:48:15;12.43;;;9.93;;
54139;SDS011;40046;53.254;5.900;2023-04-08T10:51:18;13.20;;;10.10;;
54139;SDS011;40046;53.254;5.900;2023-04-08T10:53:37;14.82;;;9.68;;
54139;SDS011;40046;53.254;5.900;2023-04-08T10:58:31;14.15;;;10.90;;
54139;SDS011;40046;53.254;5.900;2023-04-08T11:01:06;12.27;;;10.35;;
54139;SDS011;40046;53.254;5.900;2023-04-08T11:03:33;16.08;;;10.75;;
54139;SDS011;40046;53.254;5.900;2023-04-08T11:06:00;14.55;;;10.02;;
54139;SDS011;40046;53.254;5.900;2023-04-08T11:08:29;17.05;;;10.00;;
54139;SDS011;40046;53.254;5.900;2023-04-08T11:10:57;14.63;;;10.32;;
54139;SDS011;40046;53.254;5.900;2023-04-08T11:13:26;14.68;;;11.00;;
54139;SDS011;40046;53.254;5.900;2023-04-08T11:15:53;16.40;;;11.63;;
54139;SDS011;40046;53.254;5.900;2023-04-08T11:18:19;16.73;;;11.77;;
54139;SDS011;40046;53.254;5.900;2023-04-08T11:20:46;15.38;;;11.38;;
54139;SDS011;40046;53.254;5.900;2023-04-08T11:23:12;14.82;;;11.20;;
54139;SDS011;40046;53.254;5.900;2023-04-08T11:25:42;16.67;;;12.20;;
54139;SDS011;40046;53.254;5.900;2023-04-08T11:28:09;15.43;;;11.25;;
54139;SDS011;40046;53.254;5.900;2023-04-08T11:30:37;16.50;;;11.70;;
54139;SDS011;40046;53.254;5.900;2023-04-08T11:33:03;16.92;;;12.73;;
54139;SDS011;40046;53.254;5.900;2023-04-08T11:35:29;18.10;;;12.57;;
54139;SDS011;40046;53.254;5.900;2023-04-08T11:37:56;17.88;;;12.15;;
54139;SDS011;40046;53.254;5.900;2023-04-08T11:40:23;14.55;;;11.00;;
54139;SDS011;40046;53.254;5.900;2023-04-08T11:42:50;17.42;;;12.07;;
54139;SDS011;40046;53.254;5.900;2023-04-08T11:45:20;23.13;;;14.18;;
54139;SDS011;40046;53.254;5.900;2023-04-08T11:47:46;20.83;;;12.38;;
54139;SDS011;40046;53.254;5.900;2023-04-08T11:50:24;19.42;;;11.90;;
54139;SDS011;40046;53.254;5.900;2023-04-08T11:52:50;22.42;;;13.40;;
54139;SDS011;40046;53.254;5.900;2023-04-08T11:57:49;23.48;;;15.80;;
54139;SDS011;40046;53.254;5.900;2023-04-08T12:00:17;24.13;;;16.50;;
54139;SDS011;40046;53.254;5.900;2023-04-08T12:02:43;24.23;;;17.42;;
54139;SDS011;40046;53.254;5.900;2023-04-08T12:05:10;27.83;;;18.52;;
54139;SDS011;40046;53.254;5.900;2023-04-08T12:07:36;31.88;;;19.33;;
54139;SDS011;40046;53.254;5.900;2023-04-08T12:10:02;30.63;;;19.98;;
54139;SDS011;40046;53.254;5.900;2023-04-08T12:12:29;32.40;;;19.92;;
54139;SDS011;40046;53.254;5.900;2023-04-08T12:14:55;27.98;;;19.33;;
54139;SDS011;40046;53.254;5.900;2023-04-08T12:17:21;26.73;;;19.73;;
54139;SDS011;40046;53.254;5.900;2023-04-08T12:19:47;31.85;;;18.42;;
54139;SDS011;40046;53.254;5.900;2023-04-08T12:22:13;32.33;;;19.85;;
54139;SDS011;40046;53.254;5.900;2023-04-08T12:24:40;28.98;;;19.02;;
54139;SDS011;40046;53.254;5.900;2023-04-08T12:27:06;29.80;;;19.60;;
54139;SDS011;40046;53.254;5.900;2023-04-08T12:29:33;25.33;;;17.30;;
54139;SDS011;40046;53.254;5.900;2023-04-08T12:31:59;26.90;;;18.88;;
54139;SDS011;40046;53.254;5.900;2023-04-08T12:34:26;28.45;;;19.27;;
54139;SDS011;40046;53.254;5.900;2023-04-08T12:36:52;24.48;;;18.65;;
54139;SDS011;40046;53.254;5.900;2023-04-08T12:39:20;22.58;;;16.02;;
54139;SDS011;40046;53.254;5.900;2023-04-08T12:41:46;22.60;;;16.95;;
54139;SDS011;40046;53.254;5.900;2023-04-08T12:44:12;25.20;;;17.17;;
54139;SDS011;40046;53.254;5.900;2023-04-08T12:46:39;22.58;;;15.88;;
54139;SDS011;40046;53.254;5.900;2023-04-08T12:49:05;19.05;;;15.02;;
54139;SDS011;40046;53.254;5.900;2023-04-08T12:51:31;20.92;;;14.82;;
54139;SDS011;40046;53.254;5.900;2023-04-08T12:53:57;26.15;;;16.85;;
54139;SDS011;40046;53.254;5.900;2023-04-08T12:56:25;21.10;;;16.55;;
54139;SDS011;40046;53.254;5.900;2023-04-08T12:58:51;25.98;;;16.90;;
54139;SDS011;40046;53.254;5.900;2023-04-08T13:01:17;26.42;;;17.15;;
54139;SDS011;40046;53.254;5.900;2023-04-08T13:03:43;22.38;;;15.07;;
54139;SDS011;40046;53.254;5.900;2023-04-08T13:06:11;23.77;;;16.13;;
54139;SDS011;40046;53.254;5.900;2023-04-08T13:08:38;23.05;;;16.70;;
54139;SDS011;40046;53.254;5.900;2023-04-08T13:11:04;22.40;;;15.57;;
54139;SDS011;40046;53.254;5.900;2023-04-08T13:13:30;21.60;;;14.52;;
54139;SDS011;40046;53.254;5.900;2023-04-08T13:15:56;23.73;;;15.60;;
54139;SDS011;40046;53.254;5.900;2023-04-08T13:18:22;25.10;;;16.20;;
54139;SDS011;40046;53.254;5.900;2023-04-08T13:20:49;31.02;;;16.05;;
54139;SDS011;40046;53.254;5.900;2023-04-08T13:23:15;25.58;;;15.65;;
54139;SDS011;40046;53.254;5.900;2023-04-08T13:25:42;22.60;;;14.07;;
54139;SDS011;40046;53.254;5.900;2023-04-08T13:28:09;21.77;;;14.13;;
54139;SDS011;40046;53.254;5.900;2023-04-08T13:30:36;18.50;;;11.70;;
54139;SDS011;40046;53.254;5.900;2023-04-08T13:33:02;19.45;;;13.07;;
54139;SDS011;40046;53.254;5.900;2023-04-08T13:35:28;19.45;;;13.30;;
54139;SDS011;40046;53.254;5.900;2023-04-08T13:37:54;18.75;;;13.45;;
54139;SDS011;40046;53.254;5.900;2023-04-08T13:40:20;20.05;;;13.68;;
54139;SDS011;40046;53.254;5.900;2023-04-08T13:42:46;19.20;;;13.50;;
54139;SDS011;40046;53.254;5.900;2023-04-08T13:45:13;18.13;;;13.35;;
54139;SDS011;40046;53.254;5.900;2023-04-08T13:47:39;17.38;;;12.85;;
54139;SDS011;40046;53.254;5.900;2023-04-08T13:50:06;17.80;;;11.55;;
54139;SDS011;40046;53.254;5.900;2023-04-08T13:52:32;18.75;;;12.73;;
54139;SDS011;40046;53.254;5.900;2023-04-08T13:54:59;19.45;;;13.23;;
54139;SDS011;40046;53.254;5.900;2023-04-08T13:57:25;17.17;;;13.57;;
54139;SDS011;40046;53.254;5.900;2023-04-08T13:59:51;19.67;;;11.93;;
54139;SDS011;40046;53.254;5.900;2023-04-08T14:02:17;18.85;;;12.73;;
54139;SDS011;40046;53.254;5.900;2023-04-08T14:04:43;15.00;;;10.85;;
54139;SDS011;40046;53.254;5.900;2023-04-08T14:07:10;15.80;;;9.98;;
54139;SDS011;40046;53.254;5.900;2023-04-08T14:09:37;14.05;;;10.35;;
54139;SDS011;40046;53.254;5.900;2023-04-08T14:12:03;15.13;;;10.00;;
54139;SDS011;40046;53.254;5.900;2023-04-08T14:14:29;14.65;;;10.95;;
54139;SDS011;40046;53.254;5.900;2023-04-08T14:16:55;13.27;;;9.20;;
54139;SDS011;40046;53.254;5.900;2023-04-08T14:19:22;13.60;;;9.45;;
54139;SDS011;40046;53.254;5.900;2023-04-08T14:21:48;14.10;;;9.15;;
54139;SDS011;40046;53.254;5.900;2023-04-08T14:24:14;15.38;;;9.85;;
54139;SDS011;40046;53.254;5.900;2023-04-08T14:26:40;13.98;;;9.43;;
54139;SDS011;40046;53.254;5.900;2023-04-08T14:29:07;11.70;;;8.68;;
54139;SDS011;40046;53.254;5.900;2023-04-08T14:31:33;14.20;;;8.90;;
54139;SDS011;40046;53.254;5.900;2023-04-08T14:34:00;11.93;;;9.75;;
54139;SDS011;40046;53.254;5.900;2023-04-08T14:36:26;17.13;;;14.65;;
54139;SDS011;40046;53.254;5.900;2023-04-08T14:38:53;31.13;;;22.00;;
54139;SDS011;40046;53.254;5.900;2023-04-08T14:41:20;15.77;;;12.30;;
54139;SDS011;40046;53.254;5.900;2023-04-08T14:43:46;31.35;;;22.38;;